Time;durP1;ratioP1;P1;durP2;ratioP2;P2;SDS_P1;SDS_P2;PMS_P1;PMS_P2;Temp;Humidity;BMP_temperature;BMP_pressure;BME280_temperature;BME280_humidity;BME280_pressure;Samples;Min_cycle;Max_cycle;Signal;HPM_P1;HPM_P2
2022/12/19 00:00:00;;;;;;;9.47;6.17;;;;;;;;;;5112084;28;20219;-82
2022/12/19 00:02:28;;;;;;;13.43;9.13;;;;;;;;;;5111889;28;20203;-82
2022/12/19 00:04:55;;;;;;;10.20;8.50;;;;;;;;;;5103770;28;20636;-81
2022/12/19 00:07:22;;;;;;;11.47;8.57;;;;;;;;;;5111647;28;20223;-82
2022/12/19 00:09:49;;;;;;;11.73;8.27;;;;;;;;;;5111372;28;20204;-82
2022/12/19 00:12:15;;;;;;;11.80;7.80;;;;;;;;;;5111822;28;20207;-81
2022/12/19 00:14:42;;;;;;;11.10;6.67;;;;;;;;;;5111571;28;20766;-82
2022/12/19 00:17:09;;;;;;;12.13;7.80;;;;;;;;;;5110917;28;20249;-81
2022/12/19 00:19:37;;;;;;;8.70;7.00;;;;;;;;;;5110666;28;20234;-82
2022/12/19 00:22:04;;;;;;;10.80;6.23;;;;;;;;;;5103791;28;20203;-81
2022/12/19 00:24:31;;;;;;;12.93;7.37;;;;;;;;;;5110862;28;20208;-82
2022/12/19 00:26:57;;;;;;;14.33;8.20;;;;;;;;;;5111630;28;20207;-81
2022/12/19 00:29:24;;;;;;;9.03;6.83;;;;;;;;;;5108839;28;20674;-81
2022/12/19 00:31:51;;;;;;;10.97;7.87;;;;;;;;;;5111216;28;20232;-80
2022/12/19 00:34:18;;;;;;;10.67;7.70;;;;;;;;;;5101908;28;20195;-80
2022/12/19 00:36:46;;;;;;;9.37;7.30;;;;;;;;;;5107345;28;20214;-81
2022/12/19 00:39:12;;;;;;;12.90;8.00;;;;;;;;;;5110964;28;20697;-81
2022/12/19 00:41:40;;;;;;;12.37;7.83;;;;;;;;;;5111729;28;20596;-81
2022/12/19 00:44:09;;;;;;;12.97;9.03;;;;;;;;;;5110850;28;20693;-81
2022/12/19 00:46:36;;;;;;;12.23;7.57;;;;;;;;;;5110290;28;20192;-81
2022/12/19 00:49:04;;;;;;;12.93;9.10;;;;;;;;;;5110840;28;20210;-81
2022/12/19 00:51:33;;;;;;;11.00;8.07;;;;;;;;;;5102861;28;20210;-81
2022/12/19 00:54:01;;;;;;;11.13;8.70;;;;;;;;;;5110603;28;20228;-81
2022/12/19 00:56:29;;;;;;;10.13;7.30;;;;;;;;;;5096113;28;20199;-81
2022/12/19 00:58:57;;;;;;;10.00;7.17;;;;;;;;;;5111169;28;20207;-81
2022/12/19 01:01:25;;;;;;;14.07;8.47;;;;;;;;;;5110732;28;20659;-81
2022/12/19 01:03:52;;;;;;;14.17;8.90;;;;;;;;;;5101703;28;20208;-81
2022/12/19 01:06:19;;;;;;;12.93;8.33;;;;;;;;;;5110699;28;20195;-81
2022/12/19 01:08:46;;;;;;;12.60;7.80;;;;;;;;;;5111443;28;20260;-81
2022/12/19 01:11:14;;;;;;;13.80;8.07;;;;;;;;;;5111178;28;20211;-81
2022/12/19 01:13:40;;;;;;;11.87;8.60;;;;;;;;;;5110947;28;20234;-81
2022/12/19 01:16:09;;;;;;;13.67;8.63;;;;;;;;;;5110542;28;20206;-81
2022/12/19 01:18:36;;;;;;;11.57;7.83;;;;;;;;;;5097410;28;20200;-82
2022/12/19 01:21:06;;;;;;;13.00;8.13;;;;;;;;;;5099854;28;20257;-82
2022/12/19 01:23:33;;;;;;;11.03;8.33;;;;;;;;;;5109964;28;20267;-81
2022/12/19 01:25:59;;;;;;;12.43;8.20;;;;;;;;;;5110823;28;20196;-81
2022/12/19 01:28:28;;;;;;;11.63;7.60;;;;;;;;;;5110207;28;20226;-81
2022/12/19 01:30:57;;;;;;;12.97;8.33;;;;;;;;;;5111950;28;20207;-81
2022/12/19 01:33:24;;;;;;;14.97;8.97;;;;;;;;;;5109496;28;20202;-81
2022/12/19 01:35:51;;;;;;;13.73;8.23;;;;;;;;;;5105383;28;20250;-81
2022/12/19 01:38:20;;;;;;;11.70;7.67;;;;;;;;;;5110553;28;20203;-81
2022/12/19 01:40:51;;;;;;;12.80;7.97;;;;;;;;;;5108084;28;20227;-80
2022/12/19 01:43:18;;;;;;;13.00;8.57;;;;;;;;;;5110417;28;20556;-81
2022/12/19 01:45:46;;;;;;;24.07;16.83;;;;;;;;;;5113926;28;20681;-81
2022/12/19 01:48:18;;;;;;;13.13;9.43;;;;;;;;;;5113782;28;20203;-81
2022/12/19 01:50:52;;;;;;;15.47;9.17;;;;;;;;;;5110221;28;20801;-83
2022/12/19 01:53:19;;;;;;;12.87;9.50;;;;;;;;;;5113456;28;20252;-80
2022/12/19 01:55:46;;;;;;;16.57;10.03;;;;;;;;;;5114701;28;20195;-80
2022/12/19 01:58:13;;;;;;;15.67;10.50;;;;;;;;;;5114882;28;20277;-81
2022/12/19 02:00:41;;;;;;;14.93;9.17;;;;;;;;;;5113196;28;20230;-81
2022/12/19 02:03:14;;;;;;;16.90;9.53;;;;;;;;;;5112717;28;20738;-81
2022/12/19 02:05:41;;;;;;;12.07;8.40;;;;;;;;;;5113795;28;20588;-81
2022/12/19 02:08:08;;;;;;;16.83;9.67;;;;;;;;;;5108853;28;20601;-84
2022/12/19 02:10:35;;;;;;;14.33;9.17;;;;;;;;;;5111341;28;20203;-81
2022/12/19 02:13:02;;;;;;;14.97;10.23;;;;;;;;;;5093124;28;20208;-80
2022/12/19 02:15:32;;;;;;;14.23;9.97;;;;;;;;;;5109168;28;20306;-80
2022/12/19 02:18:05;;;;;;;12.67;8.80;;;;;;;;;;5100066;28;20204;-80
2022/12/19 02:20:59;;;;;;;15.03;9.57;;;;;;;;;;5112011;28;20272;-80
2022/12/19 02:23:58;;;;;;;10.07;7.97;;;;;;;;;;5103009;28;20203;-81
2022/12/19 02:26:41;;;;;;;12.10;8.33;;;;;;;;;;5105082;28;20210;-81
2022/12/19 02:29:24;;;;;;;12.83;8.37;;;;;;;;;;5114518;28;20203;-80
2022/12/19 02:31:57;;;;;;;14.50;9.67;;;;;;;;;;5113436;28;20202;-80
2022/12/19 02:34:29;;;;;;;9.77;7.80;;;;;;;;;;5113779;28;20268;-82
2022/12/19 02:37:00;;;;;;;16.60;9.20;;;;;;;;;;5113254;28;20203;-82
2022/12/19 02:39:34;;;;;;;15.33;9.47;;;;;;;;;;5113623;28;20268;-82
2022/12/19 02:42:01;;;;;;;20.97;10.77;;;;;;;;;;5112186;27;20231;-84
2022/12/19 02:44:30;;;;;;;13.87;8.87;;;;;;;;;;5112908;28;20645;-83
2022/12/19 02:47:00;;;;;;;14.93;10.73;;;;;;;;;;5113462;28;20325;-81
2022/12/19 02:49:29;;;;;;;14.53;9.83;;;;;;;;;;5113083;27;20211;-81
2022/12/19 02:51:56;;;;;;;15.97;9.47;;;;;;;;;;5113834;28;20199;-81
2022/12/19 02:54:22;;;;;;;13.30;8.63;;;;;;;;;;5099694;28;20211;-81
2022/12/19 02:56:52;;;;;;;14.07;8.57;;;;;;;;;;5102193;28;20339;-82
2022/12/19 02:59:44;;;;;;;16.20;10.73;;;;;;;;;;5113068;28;20195;-82
2022/12/19 03:02:20;;;;;;;14.30;8.50;;;;;;;;;;5113196;28;20227;-82
2022/12/19 03:04:54;;;;;;;15.20;9.73;;;;;;;;;;5100145;28;20199;-81
2022/12/19 03:07:27;;;;;;;13.13;9.00;;;;;;;;;;5098916;27;20208;-81
2022/12/19 03:09:58;;;;;;;13.13;9.50;;;;;;;;;;5102207;28;20207;-81
2022/12/19 03:12:30;;;;;;;14.97;9.47;;;;;;;;;;5109719;28;20208;-82
2022/12/19 03:14:58;;;;;;;10.67;8.43;;;;;;;;;;5103859;28;20310;-81
2022/12/19 03:17:27;;;;;;;15.93;10.77;;;;;;;;;;5111558;28;20230;-82
2022/12/19 03:19:54;;;;;;;15.50;9.30;;;;;;;;;;5112899;28;20258;-82
2022/12/19 03:22:21;;;;;;;13.53;9.83;;;;;;;;;;5098640;28;20222;-80
2022/12/19 03:24:47;;;;;;;15.57;9.90;;;;;;;;;;5112073;28;20206;-81
2022/12/19 03:27:19;;;;;;;14.17;10.03;;;;;;;;;;5106620;28;20207;-80
2022/12/19 03:29:50;;;;;;;13.17;8.17;;;;;;;;;;5113033;28;20211;-81
2022/12/19 03:32:17;;;;;;;13.70;9.57;;;;;;;;;;5099209;28;20211;-80
2022/12/19 03:34:48;;;;;;;16.13;8.07;;;;;;;;;;5112958;28;20211;-81
2022/12/19 03:37:17;;;;;;;13.17;9.30;;;;;;;;;;5097551;28;20623;-81
2022/12/19 03:39:47;;;;;;;16.47;8.93;;;;;;;;;;5105216;28;20200;-81
2022/12/19 03:45:00;;;;;;;14.80;9.37;;;;;;;;;;5105277;28;20211;-81
2022/12/19 03:47:32;;;;;;;16.40;8.87;;;;;;;;;;5103524;28;20199;-84
2022/12/19 03:50:00;;;;;;;13.40;9.33;;;;;;;;;;5112324;28;20273;-81
2022/12/19 03:52:30;;;;;;;12.40;9.17;;;;;;;;;;5112603;28;20217;-81
2022/12/19 03:55:01;;;;;;;14.47;9.90;;;;;;;;;;5110761;28;20577;-81
2022/12/19 03:57:30;;;;;;;16.23;9.70;;;;;;;;;;5108937;27;20204;-81
2022/12/19 04:00:00;;;;;;;13.60;8.63;;;;;;;;;;5107155;27;20253;-81
2022/12/19 04:02:28;;;;;;;17.70;10.20;;;;;;;;;;5113512;27;20242;-82
2022/12/19 04:04:57;;;;;;;15.90;9.47;;;;;;;;;;5116740;27;20215;-82
2022/12/19 04:07:26;;;;;;;12.83;7.90;;;;;;;;;;5116915;27;20208;-81
2022/12/19 04:09:54;;;;;;;14.97;9.87;;;;;;;;;;5112799;27;20211;-81
2022/12/19 04:12:23;;;;;;;13.20;8.27;;;;;;;;;;5111951;28;20199;-81
2022/12/19 04:14:51;;;;;;;12.23;8.57;;;;;;;;;;5111952;28;20235;-82
2022/12/19 04:17:25;;;;;;;12.93;8.20;;;;;;;;;;5111407;28;20290;-82
2022/12/19 04:19:58;;;;;;;14.53;8.13;;;;;;;;;;5110346;28;20696;-84
2022/12/19 04:22:31;;;;;;;12.67;8.33;;;;;;;;;;5097485;28;20284;-82
2022/12/19 04:24:59;;;;;;;13.83;8.27;;;;;;;;;;5111452;28;20215;-81
2022/12/19 04:27:27;;;;;;;12.97;8.67;;;;;;;;;;5101630;28;20200;-83
2022/12/19 04:29:56;;;;;;;12.80;9.17;;;;;;;;;;5110055;28;20260;-82
2022/12/19 04:32:24;;;;;;;14.23;8.87;;;;;;;;;;5110616;28;20248;-82
2022/12/19 04:34:50;;;;;;;16.20;9.13;;;;;;;;;;5110605;28;20245;-82
2022/12/19 04:37:17;;;;;;;14.53;9.40;;;;;;;;;;5109771;28;20212;-82
2022/12/19 04:39:45;;;;;;;11.03;8.23;;;;;;;;;;5110449;28;20594;-81
2022/12/19 04:42:12;;;;;;;15.50;9.83;;;;;;;;;;5111397;28;20740;-81
2022/12/19 04:44:39;;;;;;;14.37;8.73;;;;;;;;;;5111380;28;20196;-82
2022/12/19 04:47:06;;;;;;;13.20;8.43;;;;;;;;;;5110450;28;20192;-82
2022/12/19 04:49:32;;;;;;;15.50;10.33;;;;;;;;;;5110274;28;20900;-82
2022/12/19 04:51:59;;;;;;;15.57;10.43;;;;;;;;;;5110660;28;20674;-82
2022/12/19 04:54:26;;;;;;;21.47;12.03;;;;;;;;;;5107544;28;20582;-82
2022/12/19 04:56:54;;;;;;;15.70;10.30;;;;;;;;;;5101478;28;20200;-83
2022/12/19 04:59:21;;;;;;;16.87;10.00;;;;;;;;;;5108139;28;20677;-82
2022/12/19 05:01:48;;;;;;;14.43;9.43;;;;;;;;;;5110430;28;20234;-83
2022/12/19 05:04:15;;;;;;;17.03;12.07;;;;;;;;;;5110374;28;20649;-83
2022/12/19 05:06:41;;;;;;;14.73;10.23;;;;;;;;;;5105975;28;20207;-83
2022/12/19 05:09:10;;;;;;;11.97;7.53;;;;;;;;;;5108382;28;20252;-82
2022/12/19 05:11:37;;;;;;;10.77;8.20;;;;;;;;;;5109997;28;20210;-82
2022/12/19 05:14:06;;;;;;;13.83;9.27;;;;;;;;;;5110574;28;20272;-82
2022/12/19 05:16:34;;;;;;;13.23;7.83;;;;;;;;;;5110123;28;20196;-82
2022/12/19 05:19:00;;;;;;;12.10;9.67;;;;;;;;;;5109933;28;20203;-84
2022/12/19 05:21:27;;;;;;;12.70;9.23;;;;;;;;;;5104231;28;20310;-82
2022/12/19 05:23:54;;;;;;;18.93;13.37;;;;;;;;;;5109167;28;20284;-86
2022/12/19 05:26:22;;;;;;;19.40;12.27;;;;;;;;;;5096090;28;20249;-84
2022/12/19 05:28:49;;;;;;;12.57;9.57;;;;;;;;;;5109809;28;20207;-84
2022/12/19 05:31:20;;;;;;;18.03;11.77;;;;;;;;;;5110437;28;20199;-84
2022/12/19 05:33:47;;;;;;;25.77;16.00;;;;;;;;;;5110301;28;20204;-85
2022/12/19 05:36:14;;;;;;;20.63;12.63;;;;;;;;;;5097619;28;20264;-84
2022/12/19 05:38:42;;;;;;;12.53;8.27;;;;;;;;;;5116926;28;20213;-84
2022/12/19 05:41:10;;;;;;;15.07;9.13;;;;;;;;;;5084486;28;20223;-84
2022/12/19 05:43:37;;;;;;;9.73;7.63;;;;;;;;;;5105236;28;20253;-84
2022/12/19 05:46:04;;;;;;;16.27;9.73;;;;;;;;;;5109032;28;20203;-84
2022/12/19 05:48:33;;;;;;;14.97;9.27;;;;;;;;;;5111244;28;20207;-83
2022/12/19 05:51:00;;;;;;;10.93;7.97;;;;;;;;;;5111277;28;20203;-83
2022/12/19 05:53:28;;;;;;;12.60;9.33;;;;;;;;;;5109343;28;20211;-84
2022/12/19 05:56:03;;;;;;;14.17;9.20;;;;;;;;;;5110656;28;20292;-83
2022/12/19 05:58:30;;;;;;;12.70;7.60;;;;;;;;;;5097450;28;20286;-84
2022/12/19 06:01:02;;;;;;;13.20;9.23;;;;;;;;;;5110037;28;20666;-84
2022/12/19 06:03:29;;;;;;;12.70;8.67;;;;;;;;;;5097776;28;20207;-83
2022/12/19 06:05:57;;;;;;;11.03;8.33;;;;;;;;;;5110356;28;20203;-84
2022/12/19 06:08:24;;;;;;;15.80;9.23;;;;;;;;;;5110442;28;20199;-84
2022/12/19 06:10:51;;;;;;;15.60;10.03;;;;;;;;;;5110853;28;20562;-84
2022/12/19 06:13:17;;;;;;;10.90;8.87;;;;;;;;;;5101586;28;20215;-83
2022/12/19 06:15:44;;;;;;;15.50;7.93;;;;;;;;;;5107200;28;20214;-84
2022/12/19 06:18:11;;;;;;;7.57;6.37;;;;;;;;;;5102419;28;20208;-84
2022/12/19 06:20:38;;;;;;;13.77;10.07;;;;;;;;;;5112284;28;20268;-83
2022/12/19 06:23:06;;;;;;;15.80;11.30;;;;;;;;;;5113293;28;20223;-84
2022/12/19 06:25:34;;;;;;;13.57;7.80;;;;;;;;;;5101280;28;20208;-83
2022/12/19 06:28:02;;;;;;;14.40;9.97;;;;;;;;;;5107325;28;20222;-83
2022/12/19 06:30:28;;;;;;;11.87;7.50;;;;;;;;;;5100682;28;20620;-85
2022/12/19 06:32:55;;;;;;;15.47;10.73;;;;;;;;;;5104122;28;20819;-84
2022/12/19 06:35:22;;;;;;;12.97;6.30;;;;;;;;;;5097644;28;20218;-85
2022/12/19 06:37:49;;;;;;;10.27;7.60;;;;;;;;;;5109873;28;20212;-83
2022/12/19 06:42:58;;;;;;;11.80;7.93;;;;;;;;;;5100973;28;20238;-85
2022/12/19 06:45:25;;;;;;;11.17;7.00;;;;;;;;;;5114350;28;20382;-86
2022/12/19 06:47:51;;;;;;;12.13;7.83;;;;;;;;;;5112339;28;20202;-88
2022/12/19 06:50:18;;;;;;;9.60;7.10;;;;;;;;;;5108396;28;20203;-90
2022/12/19 06:52:45;;;;;;;13.13;8.27;;;;;;;;;;5100022;28;20249;-95
2022/12/19 06:55:12;;;;;;;16.33;9.20;;;;;;;;;;5114519;28;20203;-91
2022/12/19 06:57:44;;;;;;;23.13;18.53;;;;;;;;;;5101523;28;20208;-90
2022/12/19 07:00:12;;;;;;;18.03;12.30;;;;;;;;;;5111049;28;20212;-91
2022/12/19 07:02:40;;;;;;;12.20;7.27;;;;;;;;;;5101419;28;20227;-90
2022/12/19 07:05:07;;;;;;;11.03;7.27;;;;;;;;;;5101490;28;20211;-88
2022/12/19 07:07:34;;;;;;;11.07;9.07;;;;;;;;;;5101359;28;20200;-86
2022/12/19 07:10:01;;;;;;;14.83;10.57;;;;;;;;;;5113194;28;20286;-86
2022/12/19 07:12:27;;;;;;;26.67;17.73;;;;;;;;;;5100702;28;20208;-89
2022/12/19 07:14:56;;;;;;;20.30;13.17;;;;;;;;;;5100314;28;20287;-88
2022/12/19 07:17:23;;;;;;;10.93;9.40;;;;;;;;;;5103680;28;20207;-86
2022/12/19 07:19:52;;;;;;;16.03;10.53;;;;;;;;;;5113862;28;20795;-87
2022/12/19 07:22:18;;;;;;;18.80;8.93;;;;;;;;;;5108801;28;20224;-87
2022/12/19 07:24:47;;;;;;;14.00;9.53;;;;;;;;;;5104908;28;20578;-89
2022/12/19 07:27:13;;;;;;;21.13;11.47;;;;;;;;;;5100528;28;20606;-89
2022/12/19 07:29:40;;;;;;;15.70;10.73;;;;;;;;;;5113556;28;20199;-87
2022/12/19 07:32:08;;;;;;;12.10;8.63;;;;;;;;;;5113442;28;20674;-88
2022/12/19 07:34:35;;;;;;;13.97;8.30;;;;;;;;;;5113528;28;20200;-89
2022/12/19 07:37:02;;;;;;;18.50;16.13;;;;;;;;;;5113946;28;20199;-88
2022/12/19 07:39:29;;;;;;;13.00;9.37;;;;;;;;;;5113847;28;20204;-87
2022/12/19 07:41:55;;;;;;;13.63;10.80;;;;;;;;;;5107063;27;20341;-87
2022/12/19 07:44:22;;;;;;;12.43;8.87;;;;;;;;;;5105894;28;20196;-86
2022/12/19 07:46:49;;;;;;;14.63;10.07;;;;;;;;;;5113176;28;20207;-86
2022/12/19 07:49:17;;;;;;;19.73;14.53;;;;;;;;;;5113301;28;20211;-85
2022/12/19 07:51:44;;;;;;;18.43;13.37;;;;;;;;;;5112921;28;20211;-87
2022/12/19 07:54:11;;;;;;;17.97;14.17;;;;;;;;;;5113466;28;20219;-86
2022/12/19 07:56:37;;;;;;;20.37;15.70;;;;;;;;;;5092534;28;20200;-86
2022/12/19 07:59:04;;;;;;;13.03;8.00;;;;;;;;;;5106491;28;20686;-85
2022/12/19 08:01:31;;;;;;;10.33;7.93;;;;;;;;;;5092460;28;20204;-86
2022/12/19 08:03:58;;;;;;;8.90;6.53;;;;;;;;;;5106987;28;20200;-86
2022/12/19 08:06:27;;;;;;;10.60;7.83;;;;;;;;;;5105289;28;20675;-88
2022/12/19 08:08:54;;;;;;;11.17;8.57;;;;;;;;;;5104327;28;20195;-85
2022/12/19 08:11:26;;;;;;;11.57;7.67;;;;;;;;;;5099645;28;20252;-87
2022/12/19 08:13:53;;;;;;;9.87;7.23;;;;;;;;;;5100603;28;20326;-86
2022/12/19 08:16:20;;;;;;;11.33;8.27;;;;;;;;;;5102715;28;20208;-85
2022/12/19 08:18:47;;;;;;;8.87;7.03;;;;;;;;;;5110360;28;20211;-85
2022/12/19 08:21:14;;;;;;;10.23;7.77;;;;;;;;;;5106232;28;20235;-87
2022/12/19 08:23:42;;;;;;;11.63;7.47;;;;;;;;;;5097871;28;20230;-86
2022/12/19 08:26:11;;;;;;;10.63;8.20;;;;;;;;;;5094029;28;20662;-87
2022/12/19 08:28:38;;;;;;;9.57;8.17;;;;;;;;;;5104367;28;20620;-87
2022/12/19 08:31:09;;;;;;;12.47;8.03;;;;;;;;;;5099850;28;20284;-86
2022/12/19 08:33:37;;;;;;;10.63;7.80;;;;;;;;;;5101813;28;20332;-86
2022/12/19 08:36:04;;;;;;;11.50;8.60;;;;;;;;;;5109159;28;20203;-86
2022/12/19 08:38:31;;;;;;;11.13;8.17;;;;;;;;;;5098879;28;20203;-87
2022/12/19 08:41:00;;;;;;;25.20;15.33;;;;;;;;;;5103144;28;20197;-86
2022/12/19 08:43:26;;;;;;;16.57;10.93;;;;;;;;;;5099491;28;20231;-87
2022/12/19 08:45:53;;;;;;;12.77;9.27;;;;;;;;;;5100704;28;20832;-87
2022/12/19 08:48:20;;;;;;;12.37;8.77;;;;;;;;;;5103427;28;20203;-87
2022/12/19 08:50:52;;;;;;;10.43;7.63;;;;;;;;;;5101493;28;20567;-87
2022/12/19 08:53:18;;;;;;;10.10;6.87;;;;;;;;;;5100447;28;20207;-86
2022/12/19 08:55:45;;;;;;;8.90;6.53;;;;;;;;;;5100878;28;20565;-87
2022/12/19 08:58:13;;;;;;;9.07;6.03;;;;;;;;;;5102880;28;20211;-86
2022/12/19 09:00:40;;;;;;;8.80;5.43;;;;;;;;;;5105820;28;20256;-83
2022/12/19 09:03:07;;;;;;;6.97;5.00;;;;;;;;;;5106280;28;20219;-84
2022/12/19 09:05:34;;;;;;;7.63;5.73;;;;;;;;;;5098437;28;20735;-83
2022/12/19 09:08:01;;;;;;;15.03;9.37;;;;;;;;;;5100515;28;20210;-82
2022/12/19 09:10:29;;;;;;;8.77;6.60;;;;;;;;;;5101715;28;20207;-84
2022/12/19 09:12:55;;;;;;;5.67;4.27;;;;;;;;;;5102942;28;20759;-84
2022/12/19 09:15:24;;;;;;;9.30;6.03;;;;;;;;;;5102793;28;20238;-85
2022/12/19 09:17:51;;;;;;;7.87;5.33;;;;;;;;;;5092584;28;20204;-86
2022/12/19 09:20:18;;;;;;;8.43;4.37;;;;;;;;;;5096184;28;21000;-86
2022/12/19 09:22:45;;;;;;;5.10;4.37;;;;;;;;;;5102889;28;20291;-91
2022/12/19 09:25:11;;;;;;;9.53;4.70;;;;;;;;;;5109377;28;20249;-85
2022/12/19 09:27:39;;;;;;;8.57;6.73;;;;;;;;;;5099403;28;20208;-85
2022/12/19 09:30:07;;;;;;;7.90;6.47;;;;;;;;;;5103436;28;20294;-86
2022/12/19 09:32:37;;;;;;;8.77;5.40;;;;;;;;;;5105176;28;20207;-87
2022/12/19 09:35:06;;;;;;;5.97;5.13;;;;;;;;;;5100668;28;20679;-86
2022/12/19 09:37:33;;;;;;;6.07;3.83;;;;;;;;;;5099203;28;20200;-85
2022/12/19 09:40:00;;;;;;;5.70;4.43;;;;;;;;;;5101891;28;20644;-85
2022/12/19 09:42:50;;;;;;;7.50;4.70;;;;;;;;;;5105806;28;20227;-85
2022/12/19 09:45:32;;;;;;;5.23;3.77;;;;;;;;;;5098412;28;20209;-86
2022/12/19 09:48:01;;;;;;;9.03;8.13;;;;;;;;;;5103594;28;20202;-86
2022/12/19 09:50:39;;;;;;;22.27;11.43;;;;;;;;;;5104747;28;20302;-85
2022/12/19 09:53:08;;;;;;;45.07;20.63;;;;;;;;;;5103576;28;20635;-85
2022/12/19 09:55:38;;;;;;;132.03;51.23;;;;;;;;;;5102010;28;20199;-86
2022/12/19 09:58:10;;;;;;;23.43;12.23;;;;;;;;;;5099745;28;20211;-85
2022/12/19 10:00:39;;;;;;;9.87;8.03;;;;;;;;;;5102615;28;20199;-85
2022/12/19 10:03:16;;;;;;;7.77;5.33;;;;;;;;;;5107295;28;20227;-85
2022/12/19 10:05:45;;;;;;;7.50;5.77;;;;;;;;;;5097734;28;20199;-84
2022/12/19 10:08:16;;;;;;;7.00;5.40;;;;;;;;;;5106559;28;20203;-85
2022/12/19 10:10:50;;;;;;;7.37;6.07;;;;;;;;;;5107715;28;20286;-85
2022/12/19 10:13:22;;;;;;;8.10;5.00;;;;;;;;;;5104686;28;20210;-85
2022/12/19 10:15:55;;;;;;;4.97;3.83;;;;;;;;;;5106865;28;20237;-84
2022/12/19 10:18:37;;;;;;;8.97;3.63;;;;;;;;;;5109117;28;20218;-85
2022/12/19 10:21:07;;;;;;;5.97;4.37;;;;;;;;;;5103356;28;20667;-84
2022/12/19 10:24:10;;;;;;;4.80;4.13;;;;;;;;;;5106020;28;20691;-84
2022/12/19 10:26:42;;;;;;;6.83;4.30;;;;;;;;;;5107968;28;20207;-86
2022/12/19 10:29:44;;;;;;;4.43;3.97;;;;;;;;;;5103786;28;20203;-84
2022/12/19 10:32:18;;;;;;;9.07;5.33;;;;;;;;;;5102764;28;20260;-85
2022/12/19 10:34:46;;;;;;;5.07;3.97;;;;;;;;;;5105432;28;20203;-83
2022/12/19 10:37:17;;;;;;;5.10;4.33;;;;;;;;;;5102274;28;20231;-85
2022/12/19 10:39:53;;;;;;;7.30;5.07;;;;;;;;;;5096947;28;20207;-85
2022/12/19 10:42:27;;;;;;;5.30;4.13;;;;;;;;;;5103190;28;20199;-85
2022/12/19 10:44:54;;;;;;;7.63;6.30;;;;;;;;;;5101795;28;20682;-85
2022/12/19 10:47:22;;;;;;;3.90;3.33;;;;;;;;;;5104780;28;20211;-85
2022/12/19 10:49:50;;;;;;;6.43;3.87;;;;;;;;;;5105165;28;20278;-82
2022/12/19 10:52:48;;;;;;;5.60;4.43;;;;;;;;;;5104936;28;20200;-86
2022/12/19 10:55:41;;;;;;;11.10;5.20;;;;;;;;;;5109798;28;20226;-83
2022/12/19 10:58:20;;;;;;;6.20;4.27;;;;;;;;;;5101538;28;20199;-89
2022/12/19 11:01:03;;;;;;;8.17;4.97;;;;;;;;;;5100267;28;20206;-84
2022/12/19 11:03:30;;;;;;;7.27;4.23;;;;;;;;;;5104320;28;20724;-84
2022/12/19 11:05:58;;;;;;;8.43;4.77;;;;;;;;;;5104414;28;20204;-84
2022/12/19 11:08:26;;;;;;;7.73;4.70;;;;;;;;;;5104361;28;20283;-83
2022/12/19 11:10:55;;;;;;;8.73;4.97;;;;;;;;;;5109858;28;20192;-84
2022/12/19 11:13:24;;;;;;;8.57;6.37;;;;;;;;;;5100923;28;20207;-84
2022/12/19 11:15:53;;;;;;;18.13;10.17;;;;;;;;;;5106303;28;20195;-84
2022/12/19 11:18:21;;;;;;;9.07;6.10;;;;;;;;;;5101158;28;20203;-85
2022/12/19 11:20:56;;;;;;;23.70;14.50;;;;;;;;;;5103527;28;20195;-85
2022/12/19 11:23:27;;;;;;;26.73;15.47;;;;;;;;;;5098929;28;20238;-84
2022/12/19 11:25:57;;;;;;;12.03;8.07;;;;;;;;;;5108264;28;20256;-85
2022/12/19 11:28:25;;;;;;;12.37;8.33;;;;;;;;;;5110540;28;20223;-84
2022/12/19 11:30:57;;;;;;;16.17;9.07;;;;;;;;;;5113615;28;20196;-84
2022/12/19 11:33:24;;;;;;;11.60;9.50;;;;;;;;;;5113003;28;20207;-85
2022/12/19 11:35:53;;;;;;;11.33;9.30;;;;;;;;;;5104609;28;20212;-84
2022/12/19 11:38:32;;;;;;;19.47;10.03;;;;;;;;;;5092410;28;20268;-84
2022/12/19 11:41:03;;;;;;;13.90;10.60;;;;;;;;;;5104477;28;20199;-84
2022/12/19 11:43:34;;;;;;;20.10;13.53;;;;;;;;;;5112730;28;20227;-84
2022/12/19 11:46:03;;;;;;;22.10;13.67;;;;;;;;;;5113266;28;20203;-84
2022/12/19 11:48:40;;;;;;;29.57;18.50;;;;;;;;;;5112810;28;20583;-85
2022/12/19 11:51:14;;;;;;;20.87;13.30;;;;;;;;;;5099280;28;20340;-84
2022/12/19 11:53:49;;;;;;;12.03;9.53;;;;;;;;;;5112472;28;20203;-84
2022/12/19 11:56:18;;;;;;;20.70;13.23;;;;;;;;;;5109149;28;20220;-84
2022/12/19 11:58:49;;;;;;;11.30;8.00;;;;;;;;;;5103697;28;20700;-85
2022/12/19 12:01:23;;;;;;;15.33;9.17;;;;;;;;;;5113336;28;20199;-84
2022/12/19 12:04:19;;;;;;;14.07;9.03;;;;;;;;;;5100213;28;20288;-84
2022/12/19 12:06:48;;;;;;;61.00;32.03;;;;;;;;;;5103195;28;20207;-86
2022/12/19 12:09:25;;;;;;;64.00;33.60;;;;;;;;;;5112717;28;20208;-84
2022/12/19 12:11:54;;;;;;;67.50;34.37;;;;;;;;;;5112542;28;20207;-84
2022/12/19 12:14:24;;;;;;;25.10;14.37;;;;;;;;;;5112639;28;20234;-85
2022/12/19 12:17:05;;;;;;;17.17;12.87;;;;;;;;;;5111858;28;20199;-84
2022/12/19 12:19:47;;;;;;;16.23;10.50;;;;;;;;;;5112342;28;20211;-85
2022/12/19 12:22:22;;;;;;;14.33;10.00;;;;;;;;;;5112890;28;20196;-83
2022/12/19 12:24:56;;;;;;;15.33;8.13;;;;;;;;;;5112519;28;20223;-87
2022/12/19 12:27:35;;;;;;;12.23;8.57;;;;;;;;;;5112145;28;20195;-85
2022/12/19 12:30:05;;;;;;;13.07;8.20;;;;;;;;;;5098908;28;20266;-84
2022/12/19 12:32:48;;;;;;;19.23;13.10;;;;;;;;;;5112454;28;20574;-85
2022/12/19 12:35:30;;;;;;;14.67;9.47;;;;;;;;;;5112445;28;20268;-85
2022/12/19 12:38:09;;;;;;;14.33;8.07;;;;;;;;;;5111619;28;20214;-86
2022/12/19 12:40:54;;;;;;;13.17;8.07;;;;;;;;;;5099926;28;20203;-85
2022/12/19 12:43:33;;;;;;;12.20;8.03;;;;;;;;;;5098087;28;20223;-85
2022/12/19 12:46:00;;;;;;;10.40;7.33;;;;;;;;;;5112254;28;20211;-85
2022/12/19 12:48:31;;;;;;;15.70;8.40;;;;;;;;;;5111591;28;20280;-85
2022/12/19 12:50:59;;;;;;;11.77;8.07;;;;;;;;;;5112393;28;20219;-85
2022/12/19 12:53:28;;;;;;;11.53;6.80;;;;;;;;;;5111691;28;20210;-85
2022/12/19 12:55:57;;;;;;;9.27;7.50;;;;;;;;;;5097285;28;20266;-84
2022/12/19 12:58:44;;;;;;;15.07;10.73;;;;;;;;;;5099564;28;20196;-85
2022/12/19 13:01:15;;;;;;;11.20;7.43;;;;;;;;;;5097926;28;20210;-84
2022/12/19 13:03:42;;;;;;;13.80;8.07;;;;;;;;;;5111853;28;20219;-85
2022/12/19 13:06:25;;;;;;;24.03;15.30;;;;;;;;;;5106578;28;20712;-85
2022/12/19 13:08:53;;;;;;;50.50;27.60;;;;;;;;;;5091737;28;20578;-86
2022/12/19 13:14:46;;;;;;;20.47;11.70;;;;;;;;;;5105748;28;20308;-86
2022/12/19 13:17:19;;;;;;;11.37;8.53;;;;;;;;;;5104636;28;20589;-86
2022/12/19 13:20:15;;;;;;;13.93;8.70;;;;;;;;;;5094252;28;20208;-86
2022/12/19 13:22:43;;;;;;;47.73;27.27;;;;;;;;;;5102305;28;20595;-86
2022/12/19 13:25:47;;;;;;;43.37;23.53;;;;;;;;;;5102878;28;20608;-86
2022/12/19 13:28:42;;;;;;;15.97;10.53;;;;;;;;;;5101026;28;20230;-85
2022/12/19 13:31:16;;;;;;;38.10;25.07;;;;;;;;;;5098497;28;20691;-85
2022/12/19 13:34:17;;;;;;;63.13;39.83;;;;;;;;;;5099287;28;20253;-85
2022/12/19 13:36:54;;;;;;;31.83;17.90;;;;;;;;;;5100873;28;20204;-85
2022/12/19 13:39:30;;;;;;;31.53;18.63;;;;;;;;;;5095203;28;20207;-86
2022/12/19 13:45:02;;;;;;;23.77;17.03;;;;;;;;;;5100873;28;20315;-86
2022/12/19 13:47:33;;;;;;;32.73;22.53;;;;;;;;;;5104216;28;20594;-85
2022/12/19 13:50:01;;;;;;;56.70;32.17;;;;;;;;;;5111294;28;20701;-84
2022/12/19 13:52:28;;;;;;;30.10;18.73;;;;;;;;;;5097690;28;20218;-84
2022/12/19 13:54:57;;;;;;;17.80;12.40;;;;;;;;;;5111258;28;20210;-85
2022/12/19 13:57:27;;;;;;;33.07;19.83;;;;;;;;;;5110529;28;20195;-85
2022/12/19 13:59:56;;;;;;;29.03;20.23;;;;;;;;;;5111491;28;20208;-85
2022/12/19 14:02:28;;;;;;;16.30;11.03;;;;;;;;;;5098128;28;20196;-85
2022/12/19 14:04:55;;;;;;;22.20;15.60;;;;;;;;;;5097675;28;20236;-85
2022/12/19 14:07:33;;;;;;;15.27;11.93;;;;;;;;;;5107746;28;20207;-86
2022/12/19 14:09:59;;;;;;;13.13;9.70;;;;;;;;;;5110737;28;21066;-86
2022/12/19 14:15:25;;;;;;;30.90;22.30;;;;;;;;;;5110660;28;20774;-84
2022/12/19 14:17:53;;;;;;;29.47;20.03;;;;;;;;;;5110916;28;20701;-85
2022/12/19 14:20:22;;;;;;;21.10;13.93;;;;;;;;;;5110766;28;20207;-85
2022/12/19 14:22:49;;;;;;;35.70;20.07;;;;;;;;;;5111446;28;20203;-85
2022/12/19 14:25:16;;;;;;;25.60;18.50;;;;;;;;;;5109326;28;20232;-85
2022/12/19 14:27:45;;;;;;;23.90;18.20;;;;;;;;;;5099589;28;20202;-85
2022/12/19 14:30:28;;;;;;;23.23;16.37;;;;;;;;;;5098412;28;20208;-85
2022/12/19 14:32:57;;;;;;;22.93;16.03;;;;;;;;;;5106944;28;20286;-85
2022/12/19 14:35:27;;;;;;;54.37;36.10;;;;;;;;;;5103473;28;20191;-83
2022/12/19 14:38:00;;;;;;;35.63;26.03;;;;;;;;;;5103627;28;20250;-86
2022/12/19 14:40:31;;;;;;;30.03;21.00;;;;;;;;;;5096725;28;20630;-86
2022/12/19 14:45:44;;;;;;;44.67;29.47;;;;;;;;;;5104972;28;20246;-85
2022/12/19 14:48:27;;;;;;;26.73;18.83;;;;;;;;;;5096336;28;20279;-85
2022/12/19 14:51:04;;;;;;;25.43;15.87;;;;;;;;;;5109495;28;20199;-86
2022/12/19 14:53:31;;;;;;;15.20;11.77;;;;;;;;;;5103011;28;20310;-86
2022/12/19 14:56:03;;;;;;;13.87;11.20;;;;;;;;;;5106689;28;20222;-86
2022/12/19 14:58:33;;;;;;;11.40;8.30;;;;;;;;;;5099206;28;20204;-85
2022/12/19 15:01:00;;;;;;;11.80;7.70;;;;;;;;;;5108206;27;20205;-85
2022/12/19 15:03:30;;;;;;;9.90;7.03;;;;;;;;;;5104473;28;20204;-85